Terminal Aerodrome Forecast
Issued by NWS

Home | Current Version | Previous Version | Text Only | Print | Product List | Glossary On
Versions: 1 2 3 4 5 6 7 8 9 10 11 12 13 14 15 16 17
000
FTAK31 PANC 271140
TAFADQ
TAF
PADQ 271140Z 2712/2812 30010KT P6SM SCT100
     FM272000 31012G20KT P6SM SCT120 BKN200
     FM280500 30007KT P6SM SCT200=

USA.gov is the U.S. government's official web portal to all federal, state and local government web resources and services.